sensor_id;sensor_type;location;lat;lon;timestamp;P1;durP1;ratioP1;P2;durP2;ratioP2
59424;SDS011;45231;44.826;20.312;2023-01-16T00:02:21;34.37;;;21.43;;
59424;SDS011;45231;44.826;20.312;2023-01-16T00:04:47;40.80;;;23.25;;
59424;SDS011;45231;44.826;20.312;2023-01-16T00:07:13;40.45;;;24.85;;
59424;SDS011;45231;44.826;20.312;2023-01-16T00:09:39;37.47;;;23.95;;
59424;SDS011;45231;44.826;20.312;2023-01-16T00:12:05;35.70;;;22.70;;
59424;SDS011;45231;44.826;20.312;2023-01-16T00:14:32;38.55;;;22.90;;
59424;SDS011;45231;44.826;20.312;2023-01-16T00:16:58;33.90;;;21.88;;
59424;SDS011;45231;44.826;20.312;2023-01-16T00:19:24;34.30;;;20.60;;
59424;SDS011;45231;44.826;20.312;2023-01-16T00:21:50;33.22;;;20.05;;
59424;SDS011;45231;44.826;20.312;2023-01-16T00:24:16;37.95;;;22.27;;
59424;SDS011;45231;44.826;20.312;2023-01-16T00:26:42;35.00;;;21.23;;
59424;SDS011;45231;44.826;20.312;2023-01-16T00:29:08;39.25;;;23.15;;
59424;SDS011;45231;44.826;20.312;2023-01-16T00:31:34;34.65;;;21.42;;
59424;SDS011;45231;44.826;20.312;2023-01-16T00:34:00;36.10;;;21.25;;
59424;SDS011;45231;44.826;20.312;2023-01-16T00:36:26;38.97;;;20.93;;
59424;SDS011;45231;44.826;20.312;2023-01-16T00:38:52;35.97;;;21.23;;
59424;SDS011;45231;44.826;20.312;2023-01-16T00:41:20;35.65;;;20.65;;
59424;SDS011;45231;44.826;20.312;2023-01-16T00:43:46;37.47;;;20.50;;
59424;SDS011;45231;44.826;20.312;2023-01-16T00:46:12;34.47;;;21.00;;
59424;SDS011;45231;44.826;20.312;2023-01-16T00:48:38;36.03;;;20.73;;
59424;SDS011;45231;44.826;20.312;2023-01-16T00:51:04;35.13;;;21.02;;
59424;SDS011;45231;44.826;20.312;2023-01-16T00:53:30;35.07;;;20.57;;
59424;SDS011;45231;44.826;20.312;2023-01-16T00:55:56;36.90;;;22.27;;
59424;SDS011;45231;44.826;20.312;2023-01-16T00:58:22;37.45;;;22.73;;
59424;SDS011;45231;44.826;20.312;2023-01-16T01:00:48;51.95;;;34.75;;
59424;SDS011;45231;44.826;20.312;2023-01-16T01:03:14;52.80;;;33.47;;
59424;SDS011;45231;44.826;20.312;2023-01-16T01:05:40;41.10;;;27.13;;
59424;SDS011;45231;44.826;20.312;2023-01-16T01:08:06;48.43;;;31.93;;
59424;SDS011;45231;44.826;20.312;2023-01-16T01:10:35;46.77;;;28.87;;
59424;SDS011;45231;44.826;20.312;2023-01-16T01:13:01;38.65;;;23.30;;
59424;SDS011;45231;44.826;20.312;2023-01-16T01:15:27;35.53;;;22.40;;
59424;SDS011;45231;44.826;20.312;2023-01-16T01:17:53;43.00;;;24.53;;
59424;SDS011;45231;44.826;20.312;2023-01-16T01:20:19;46.30;;;25.05;;
59424;SDS011;45231;44.826;20.312;2023-01-16T01:22:45;38.58;;;22.77;;
59424;SDS011;45231;44.826;20.312;2023-01-16T01:25:12;30.50;;;19.40;;
59424;SDS011;45231;44.826;20.312;2023-01-16T01:27:38;34.15;;;20.90;;
59424;SDS011;45231;44.826;20.312;2023-01-16T01:30:04;33.87;;;21.43;;
59424;SDS011;45231;44.826;20.312;2023-01-16T01:32:30;38.90;;;22.88;;
59424;SDS011;45231;44.826;20.312;2023-01-16T01:34:56;34.03;;;21.37;;
59424;SDS011;45231;44.826;20.312;2023-01-16T01:39:49;35.65;;;21.70;;
59424;SDS011;45231;44.826;20.312;2023-01-16T01:42:15;33.35;;;20.00;;
59424;SDS011;45231;44.826;20.312;2023-01-16T01:45:01;36.40;;;24.40;;
59424;SDS011;45231;44.826;20.312;2023-01-16T01:47:32;36.72;;;21.33;;
59424;SDS011;45231;44.826;20.312;2023-01-16T01:49:59;41.80;;;26.88;;
59424;SDS011;45231;44.826;20.312;2023-01-16T01:52:27;39.08;;;22.13;;
59424;SDS011;45231;44.826;20.312;2023-01-16T01:54:55;36.05;;;21.48;;
59424;SDS011;45231;44.826;20.312;2023-01-16T01:57:27;33.50;;;20.27;;
59424;SDS011;45231;44.826;20.312;2023-01-16T01:59:56;42.53;;;27.42;;
59424;SDS011;45231;44.826;20.312;2023-01-16T02:02:24;35.45;;;21.50;;
59424;SDS011;45231;44.826;20.312;2023-01-16T02:04:51;39.05;;;26.00;;
59424;SDS011;45231;44.826;20.312;2023-01-16T02:07:22;36.05;;;22.15;;
59424;SDS011;45231;44.826;20.312;2023-01-16T02:09:50;36.97;;;21.85;;
59424;SDS011;45231;44.826;20.312;2023-01-16T02:12:17;40.20;;;23.85;;
59424;SDS011;45231;44.826;20.312;2023-01-16T02:14:44;46.50;;;26.93;;
59424;SDS011;45231;44.826;20.312;2023-01-16T02:17:13;41.70;;;24.35;;
59424;SDS011;45231;44.826;20.312;2023-01-16T02:25:42;62.97;;;38.97;;
59424;SDS011;45231;44.826;20.312;2023-01-16T02:31:09;67.55;;;42.70;;
59424;SDS011;45231;44.826;20.312;2023-01-16T02:41:35;39.78;;;25.13;;
59424;SDS011;45231;44.826;20.312;2023-01-16T02:44:14;37.67;;;22.52;;
59424;SDS011;45231;44.826;20.312;2023-01-16T02:46:45;41.72;;;23.35;;
59424;SDS011;45231;44.826;20.312;2023-01-16T02:49:21;36.60;;;22.33;;
59424;SDS011;45231;44.826;20.312;2023-01-16T02:54:36;38.05;;;23.00;;
59424;SDS011;45231;44.826;20.312;2023-01-16T02:57:11;34.95;;;21.20;;
59424;SDS011;45231;44.826;20.312;2023-01-16T02:59:39;36.72;;;22.67;;
59424;SDS011;45231;44.826;20.312;2023-01-16T03:02:06;35.00;;;21.17;;
59424;SDS011;45231;44.826;20.312;2023-01-16T03:04:45;33.70;;;21.13;;
59424;SDS011;45231;44.826;20.312;2023-01-16T03:09:44;34.08;;;20.50;;
59424;SDS011;45231;44.826;20.312;2023-01-16T03:12:29;37.88;;;22.25;;
59424;SDS011;45231;44.826;20.312;2023-01-16T03:20:09;37.10;;;21.08;;
59424;SDS011;45231;44.826;20.312;2023-01-16T03:22:49;40.33;;;24.08;;
59424;SDS011;45231;44.826;20.312;2023-01-16T03:27:56;37.95;;;22.98;;
59424;SDS011;45231;44.826;20.312;2023-01-16T03:31:00;36.80;;;22.33;;
59424;SDS011;45231;44.826;20.312;2023-01-16T03:33:36;35.47;;;20.83;;
59424;SDS011;45231;44.826;20.312;2023-01-16T03:36:24;38.65;;;23.10;;
59424;SDS011;45231;44.826;20.312;2023-01-16T03:38:52;36.53;;;21.88;;
59424;SDS011;45231;44.826;20.312;2023-01-16T03:41:19;36.80;;;21.50;;
59424;SDS011;45231;44.826;20.312;2023-01-16T03:43:48;35.13;;;21.05;;
59424;SDS011;45231;44.826;20.312;2023-01-16T03:46:16;35.72;;;20.63;;
59424;SDS011;45231;44.826;20.312;2023-01-16T03:51:13;35.72;;;21.90;;
59424;SDS011;45231;44.826;20.312;2023-01-16T03:53:44;35.97;;;21.75;;
59424;SDS011;45231;44.826;20.312;2023-01-16T03:56:20;37.80;;;22.77;;
59424;SDS011;45231;44.826;20.312;2023-01-16T03:58:46;35.83;;;20.83;;
59424;SDS011;45231;44.826;20.312;2023-01-16T04:06:32;39.00;;;20.10;;
59424;SDS011;45231;44.826;20.312;2023-01-16T04:08:58;39.28;;;20.35;;
59424;SDS011;45231;44.826;20.312;2023-01-16T04:11:24;36.55;;;20.67;;
59424;SDS011;45231;44.826;20.312;2023-01-16T04:13:52;34.47;;;17.58;;
59424;SDS011;45231;44.826;20.312;2023-01-16T04:16:19;30.70;;;16.77;;
59424;SDS011;45231;44.826;20.312;2023-01-16T04:21:12;26.73;;;16.35;;
59424;SDS011;45231;44.826;20.312;2023-01-16T04:23:38;31.67;;;17.70;;
59424;SDS011;45231;44.826;20.312;2023-01-16T04:26:04;29.00;;;16.58;;
59424;SDS011;45231;44.826;20.312;2023-01-16T04:28:30;28.40;;;16.67;;
59424;SDS011;45231;44.826;20.312;2023-01-16T04:30:56;26.92;;;16.70;;
59424;SDS011;45231;44.826;20.312;2023-01-16T04:33:22;27.77;;;17.73;;
59424;SDS011;45231;44.826;20.312;2023-01-16T04:35:48;27.87;;;17.23;;
59424;SDS011;45231;44.826;20.312;2023-01-16T04:38:14;28.88;;;16.80;;
59424;SDS011;45231;44.826;20.312;2023-01-16T04:40:40;25.67;;;16.87;;
59424;SDS011;45231;44.826;20.312;2023-01-16T04:43:06;32.72;;;18.10;;
59424;SDS011;45231;44.826;20.312;2023-01-16T04:45:32;29.38;;;16.38;;
59424;SDS011;45231;44.826;20.312;2023-01-16T04:47:58;27.25;;;15.50;;
59424;SDS011;45231;44.826;20.312;2023-01-16T04:50:24;27.48;;;16.20;;
59424;SDS011;45231;44.826;20.312;2023-01-16T04:52:50;26.50;;;15.65;;
59424;SDS011;45231;44.826;20.312;2023-01-16T04:55:17;27.75;;;16.35;;
59424;SDS011;45231;44.826;20.312;2023-01-16T04:57:43;28.93;;;15.83;;
59424;SDS011;45231;44.826;20.312;2023-01-16T05:00:09;27.07;;;16.27;;
59424;SDS011;45231;44.826;20.312;2023-01-16T05:05:02;27.02;;;15.75;;
59424;SDS011;45231;44.826;20.312;2023-01-16T05:07:28;28.97;;;16.37;;
59424;SDS011;45231;44.826;20.312;2023-01-16T05:09:54;28.43;;;16.37;;
59424;SDS011;45231;44.826;20.312;2023-01-16T05:12:20;30.80;;;18.30;;
59424;SDS011;45231;44.826;20.312;2023-01-16T05:14:46;31.43;;;17.23;;
59424;SDS011;45231;44.826;20.312;2023-01-16T05:17:12;30.55;;;17.30;;
59424;SDS011;45231;44.826;20.312;2023-01-16T05:19:38;31.67;;;16.85;;
59424;SDS011;45231;44.826;20.312;2023-01-16T05:22:04;30.00;;;17.38;;
59424;SDS011;45231;44.826;20.312;2023-01-16T05:24:30;31.27;;;16.35;;
59424;SDS011;45231;44.826;20.312;2023-01-16T05:26:56;31.75;;;17.50;;
59424;SDS011;45231;44.826;20.312;2023-01-16T05:29:22;30.42;;;16.98;;
59424;SDS011;45231;44.826;20.312;2023-01-16T05:31:48;27.45;;;15.43;;
59424;SDS011;45231;44.826;20.312;2023-01-16T05:34:14;25.27;;;15.50;;
59424;SDS011;45231;44.826;20.312;2023-01-16T05:36:40;27.02;;;16.00;;
59424;SDS011;45231;44.826;20.312;2023-01-16T05:39:06;27.20;;;15.63;;
59424;SDS011;45231;44.826;20.312;2023-01-16T05:41:34;27.25;;;16.83;;
59424;SDS011;45231;44.826;20.312;2023-01-16T05:44:00;30.10;;;16.48;;
59424;SDS011;45231;44.826;20.312;2023-01-16T05:46:26;29.63;;;17.10;;
59424;SDS011;45231;44.826;20.312;2023-01-16T05:48:52;29.95;;;17.48;;
59424;SDS011;45231;44.826;20.312;2023-01-16T05:51:18;31.48;;;17.88;;
59424;SDS011;45231;44.826;20.312;2023-01-16T05:53:48;31.87;;;17.60;;
59424;SDS011;45231;44.826;20.312;2023-01-16T05:56:14;29.60;;;17.85;;
59424;SDS011;45231;44.826;20.312;2023-01-16T05:58:40;28.00;;;15.60;;
59424;SDS011;45231;44.826;20.312;2023-01-16T06:01:06;31.92;;;18.38;;
59424;SDS011;45231;44.826;20.312;2023-01-16T06:03:32;25.05;;;14.52;;
59424;SDS011;45231;44.826;20.312;2023-01-16T06:05:58;31.73;;;17.50;;
59424;SDS011;45231;44.826;20.312;2023-01-16T06:08:25;28.98;;;16.50;;
59424;SDS011;45231;44.826;20.312;2023-01-16T06:10:51;29.17;;;17.33;;
59424;SDS011;45231;44.826;20.312;2023-01-16T06:13:17;29.80;;;17.20;;
59424;SDS011;45231;44.826;20.312;2023-01-16T06:15:43;25.48;;;15.43;;
59424;SDS011;45231;44.826;20.312;2023-01-16T06:18:09;26.40;;;15.88;;
59424;SDS011;45231;44.826;20.312;2023-01-16T06:20:35;26.93;;;15.67;;
59424;SDS011;45231;44.826;20.312;2023-01-16T06:23:01;28.27;;;16.45;;
59424;SDS011;45231;44.826;20.312;2023-01-16T06:25:27;25.52;;;14.68;;
59424;SDS011;45231;44.826;20.312;2023-01-16T06:27:54;24.17;;;14.82;;
59424;SDS011;45231;44.826;20.312;2023-01-16T06:30:20;26.67;;;14.15;;
59424;SDS011;45231;44.826;20.312;2023-01-16T06:32:49;26.47;;;15.23;;
59424;SDS011;45231;44.826;20.312;2023-01-16T06:35:15;27.05;;;15.40;;
59424;SDS011;45231;44.826;20.312;2023-01-16T06:37:41;28.98;;;15.60;;
59424;SDS011;45231;44.826;20.312;2023-01-16T06:40:07;26.02;;;14.52;;
59424;SDS011;45231;44.826;20.312;2023-01-16T06:42:34;25.55;;;15.05;;
59424;SDS011;45231;44.826;20.312;2023-01-16T06:45:00;26.98;;;15.50;;
59424;SDS011;45231;44.826;20.312;2023-01-16T06:47:26;27.13;;;15.30;;
59424;SDS011;45231;44.826;20.312;2023-01-16T06:49:52;26.70;;;14.57;;
59424;SDS011;45231;44.826;20.312;2023-01-16T06:52:18;26.58;;;15.57;;
59424;SDS011;45231;44.826;20.312;2023-01-16T06:54:44;28.67;;;16.08;;
59424;SDS011;45231;44.826;20.312;2023-01-16T06:57:10;25.07;;;15.67;;
59424;SDS011;45231;44.826;20.312;2023-01-16T06:59:38;26.60;;;14.82;;
59424;SDS011;45231;44.826;20.312;2023-01-16T07:02:05;25.35;;;14.32;;
59424;SDS011;45231;44.826;20.312;2023-01-16T07:04:31;25.02;;;14.70;;
59424;SDS011;45231;44.826;20.312;2023-01-16T07:06:57;28.38;;;15.63;;
59424;SDS011;45231;44.826;20.312;2023-01-16T07:09:23;30.13;;;15.02;;
59424;SDS011;45231;44.826;20.312;2023-01-16T07:11:55;27.17;;;15.20;;
59424;SDS011;45231;44.826;20.312;2023-01-16T07:14:21;25.95;;;14.32;;
59424;SDS011;45231;44.826;20.312;2023-01-16T07:17:07;24.65;;;13.43;;
59424;SDS011;45231;44.826;20.312;2023-01-16T07:19:52;25.40;;;14.93;;
59424;SDS011;45231;44.826;20.312;2023-01-16T07:22:37;23.65;;;14.95;;
59424;SDS011;45231;44.826;20.312;2023-01-16T07:25:06;29.75;;;16.67;;
59424;SDS011;45231;44.826;20.312;2023-01-16T07:27:34;23.20;;;14.10;;
59424;SDS011;45231;44.826;20.312;2023-01-16T07:30:00;25.85;;;14.93;;
59424;SDS011;45231;44.826;20.312;2023-01-16T07:32:26;23.00;;;13.97;;
59424;SDS011;45231;44.826;20.312;2023-01-16T07:34:52;25.87;;;15.00;;
59424;SDS011;45231;44.826;20.312;2023-01-16T07:37:18;25.08;;;15.05;;
59424;SDS011;45231;44.826;20.312;2023-01-16T07:39:44;24.23;;;13.70;;
59424;SDS011;45231;44.826;20.312;2023-01-16T07:42:10;26.45;;;14.45;;
59424;SDS011;45231;44.826;20.312;2023-01-16T07:44:36;24.37;;;14.53;;
59424;SDS011;45231;44.826;20.312;2023-01-16T07:47:02;24.95;;;15.32;;
59424;SDS011;45231;44.826;20.312;2023-01-16T07:49:28;19.13;;;11.77;;
59424;SDS011;45231;44.826;20.312;2023-01-16T07:51:54;24.60;;;13.83;;
59424;SDS011;45231;44.826;20.312;2023-01-16T07:54:20;24.17;;;11.60;;
59424;SDS011;45231;44.826;20.312;2023-01-16T07:56:47;20.38;;;11.48;;
59424;SDS011;45231;44.826;20.312;2023-01-16T07:59:13;23.92;;;12.55;;
59424;SDS011;45231;44.826;20.312;2023-01-16T08:01:39;25.98;;;14.35;;
59424;SDS011;45231;44.826;20.312;2023-01-16T08:04:07;24.23;;;13.20;;
59424;SDS011;45231;44.826;20.312;2023-01-16T08:06:33;22.92;;;12.98;;
59424;SDS011;45231;44.826;20.312;2023-01-16T08:08:59;25.63;;;14.70;;
59424;SDS011;45231;44.826;20.312;2023-01-16T08:11:25;23.10;;;13.33;;
59424;SDS011;45231;44.826;20.312;2023-01-16T08:14:01;23.80;;;13.93;;
59424;SDS011;45231;44.826;20.312;2023-01-16T08:16:27;19.88;;;13.35;;
59424;SDS011;45231;44.826;20.312;2023-01-16T08:18:53;23.60;;;12.43;;
59424;SDS011;45231;44.826;20.312;2023-01-16T08:21:19;20.93;;;12.03;;
59424;SDS011;45231;44.826;20.312;2023-01-16T08:23:45;23.60;;;12.50;;
59424;SDS011;45231;44.826;20.312;2023-01-16T08:26:11;26.80;;;13.90;;
59424;SDS011;45231;44.826;20.312;2023-01-16T08:28:38;22.85;;;11.30;;
59424;SDS011;45231;44.826;20.312;2023-01-16T08:31:09;20.55;;;11.80;;
59424;SDS011;45231;44.826;20.312;2023-01-16T08:33:36;22.63;;;13.23;;
59424;SDS011;45231;44.826;20.312;2023-01-16T08:36:03;23.92;;;13.82;;
59424;SDS011;45231;44.826;20.312;2023-01-16T08:38:30;21.38;;;13.00;;
59424;SDS011;45231;44.826;20.312;2023-01-16T08:40:56;22.70;;;13.15;;
59424;SDS011;45231;44.826;20.312;2023-01-16T08:43:22;24.35;;;13.75;;
59424;SDS011;45231;44.826;20.312;2023-01-16T08:46:12;24.40;;;13.38;;
59424;SDS011;45231;44.826;20.312;2023-01-16T08:49:00;24.58;;;14.70;;
59424;SDS011;45231;44.826;20.312;2023-01-16T08:51:45;23.48;;;13.30;;
59424;SDS011;45231;44.826;20.312;2023-01-16T08:54:11;22.23;;;11.67;;
59424;SDS011;45231;44.826;20.312;2023-01-16T08:56:38;21.23;;;12.90;;
59424;SDS011;45231;44.826;20.312;2023-01-16T08:59:07;25.75;;;13.52;;
59424;SDS011;45231;44.826;20.312;2023-01-16T09:01:34;23.13;;;12.55;;
59424;SDS011;45231;44.826;20.312;2023-01-16T09:04:00;19.10;;;10.90;;
59424;SDS011;45231;44.826;20.312;2023-01-16T09:06:26;18.67;;;12.13;;
59424;SDS011;45231;44.826;20.312;2023-01-16T09:08:52;18.77;;;11.38;;
59424;SDS011;45231;44.826;20.312;2023-01-16T09:11:18;23.33;;;11.57;;
59424;SDS011;45231;44.826;20.312;2023-01-16T09:14:03;22.80;;;13.05;;
59424;SDS011;45231;44.826;20.312;2023-01-16T09:16:29;23.63;;;12.73;;
59424;SDS011;45231;44.826;20.312;2023-01-16T09:18:55;22.20;;;13.23;;
59424;SDS011;45231;44.826;20.312;2023-01-16T09:21:21;20.57;;;11.77;;
59424;SDS011;45231;44.826;20.312;2023-01-16T09:23:49;17.10;;;10.38;;
59424;SDS011;45231;44.826;20.312;2023-01-16T09:26:16;20.95;;;12.25;;
59424;SDS011;45231;44.826;20.312;2023-01-16T09:28:42;20.48;;;11.65;;
59424;SDS011;45231;44.826;20.312;2023-01-16T09:31:08;19.15;;;11.38;;
59424;SDS011;45231;44.826;20.312;2023-01-16T09:33:34;16.47;;;9.47;;
59424;SDS011;45231;44.826;20.312;2023-01-16T09:36:02;21.20;;;11.95;;
59424;SDS011;45231;44.826;20.312;2023-01-16T09:38:28;19.85;;;10.70;;
59424;SDS011;45231;44.826;20.312;2023-01-16T09:40:55;20.45;;;11.60;;
59424;SDS011;45231;44.826;20.312;2023-01-16T09:46:10;19.88;;;11.80;;
59424;SDS011;45231;44.826;20.312;2023-01-16T09:48:52;23.63;;;13.07;;
59424;SDS011;45231;44.826;20.312;2023-01-16T09:51:24;20.85;;;12.55;;
59424;SDS011;45231;44.826;20.312;2023-01-16T09:54:11;21.15;;;10.55;;
59424;SDS011;45231;44.826;20.312;2023-01-16T09:56:58;25.10;;;12.93;;
59424;SDS011;45231;44.826;20.312;2023-01-16T09:59:48;20.65;;;12.32;;
59424;SDS011;45231;44.826;20.312;2023-01-16T10:02:20;21.50;;;12.32;;
59424;SDS011;45231;44.826;20.312;2023-01-16T10:04:48;22.00;;;12.05;;
59424;SDS011;45231;44.826;20.312;2023-01-16T10:12:32;26.35;;;13.70;;
59424;SDS011;45231;44.826;20.312;2023-01-16T10:15:16;23.13;;;12.80;;
59424;SDS011;45231;44.826;20.312;2023-01-16T10:18:00;20.60;;;11.93;;
59424;SDS011;45231;44.826;20.312;2023-01-16T10:25:39;18.35;;;10.93;;
59424;SDS011;45231;44.826;20.312;2023-01-16T10:28:12;20.27;;;11.20;;
59424;SDS011;45231;44.826;20.312;2023-01-16T10:30:48;17.65;;;9.38;;
59424;SDS011;45231;44.826;20.312;2023-01-16T10:34:02;24.60;;;11.63;;
59424;SDS011;45231;44.826;20.312;2023-01-16T10:36:02;21.20;;;12.15;;
59424;SDS011;45231;44.826;20.312;2023-01-16T10:38:48;19.95;;;12.93;;
59424;SDS011;45231;44.826;20.312;2023-01-16T10:41:26;18.33;;;11.05;;
59424;SDS011;45231;44.826;20.312;2023-01-16T10:47:03;20.60;;;12.05;;
59424;SDS011;45231;44.826;20.312;2023-01-16T10:49:52;20.83;;;11.27;;
59424;SDS011;45231;44.826;20.312;2023-01-16T10:52:18;20.50;;;12.10;;
59424;SDS011;45231;44.826;20.312;2023-01-16T10:54:44;18.02;;;10.20;;
59424;SDS011;45231;44.826;20.312;2023-01-16T10:57:17;18.90;;;10.57;;
59424;SDS011;45231;44.826;20.312;2023-01-16T10:59:47;14.30;;;8.38;;
59424;SDS011;45231;44.826;20.312;2023-01-16T11:02:16;19.02;;;11.20;;
59424;SDS011;45231;44.826;20.312;2023-01-16T11:04:48;17.27;;;10.40;;
59424;SDS011;45231;44.826;20.312;2023-01-16T11:07:18;19.77;;;10.82;;
59424;SDS011;45231;44.826;20.312;2023-01-16T11:09:45;17.00;;;10.13;;
59424;SDS011;45231;44.826;20.312;2023-01-16T11:12:18;16.98;;;10.77;;
59424;SDS011;45231;44.826;20.312;2023-01-16T11:15:09;18.08;;;10.32;;
59424;SDS011;45231;44.826;20.312;2023-01-16T11:17:57;18.73;;;9.93;;
59424;SDS011;45231;44.826;20.312;2023-01-16T11:21:48;18.20;;;9.55;;
59424;SDS011;45231;44.826;20.312;2023-01-16T11:23:49;17.42;;;9.95;;
59424;SDS011;45231;44.826;20.312;2023-01-16T11:26:21;16.63;;;10.18;;
59424;SDS011;45231;44.826;20.312;2023-01-16T11:28:48;13.98;;;8.60;;
59424;SDS011;45231;44.826;20.312;2023-01-16T11:31:18;16.03;;;9.80;;
59424;SDS011;45231;44.826;20.312;2023-01-16T11:33:46;15.45;;;9.00;;
59424;SDS011;45231;44.826;20.312;2023-01-16T11:36:15;17.15;;;9.73;;
59424;SDS011;45231;44.826;20.312;2023-01-16T11:38:43;13.52;;;8.35;;
59424;SDS011;45231;44.826;20.312;2023-01-16T11:43:35;18.33;;;8.73;;
59424;SDS011;45231;44.826;20.312;2023-01-16T11:46:37;15.68;;;9.43;;
59424;SDS011;45231;44.826;20.312;2023-01-16T11:49:16;15.82;;;8.82;;
59424;SDS011;45231;44.826;20.312;2023-01-16T11:51:43;17.23;;;10.15;;
59424;SDS011;45231;44.826;20.312;2023-01-16T11:54:13;16.23;;;9.87;;
59424;SDS011;45231;44.826;20.312;2023-01-16T11:56:45;16.08;;;8.63;;
59424;SDS011;45231;44.826;20.312;2023-01-16T12:01:46;17.95;;;10.95;;
59424;SDS011;45231;44.826;20.312;2023-01-16T12:04:35;16.75;;;9.45;;
59424;SDS011;45231;44.826;20.312;2023-01-16T12:09:40;16.35;;;9.18;;
59424;SDS011;45231;44.826;20.312;2023-01-16T12:14:58;16.02;;;9.23;;
59424;SDS011;45231;44.826;20.312;2023-01-16T12:17:46;16.40;;;9.75;;
59424;SDS011;45231;44.826;20.312;2023-01-16T12:20:18;14.93;;;10.07;;
59424;SDS011;45231;44.826;20.312;2023-01-16T12:33:24;18.30;;;10.45;;
59424;SDS011;45231;44.826;20.312;2023-01-16T12:36:03;20.85;;;12.13;;
59424;SDS011;45231;44.826;20.312;2023-01-16T12:38:36;16.92;;;9.55;;
59424;SDS011;45231;44.826;20.312;2023-01-16T12:44:36;17.80;;;10.05;;
59424;SDS011;45231;44.826;20.312;2023-01-16T12:46:35;16.60;;;10.05;;
59424;SDS011;45231;44.826;20.312;2023-01-16T12:54:53;20.75;;;11.43;;
59424;SDS011;45231;44.826;20.312;2023-01-16T13:00:00;17.00;;;9.30;;
59424;SDS011;45231;44.826;20.312;2023-01-16T13:05:03;16.17;;;10.20;;
59424;SDS011;45231;44.826;20.312;2023-01-16T13:07:34;17.05;;;11.00;;
59424;SDS011;45231;44.826;20.312;2023-01-16T13:12:48;16.77;;;10.30;;
59424;SDS011;45231;44.826;20.312;2023-01-16T13:15:35;15.05;;;10.27;;
59424;SDS011;45231;44.826;20.312;2023-01-16T13:18:06;17.98;;;9.82;;
59424;SDS011;45231;44.826;20.312;2023-01-16T13:20:36;16.38;;;9.93;;
59424;SDS011;45231;44.826;20.312;2023-01-16T13:25:32;17.42;;;9.30;;
59424;SDS011;45231;44.826;20.312;2023-01-16T13:28:05;20.73;;;11.85;;
59424;SDS011;45231;44.826;20.312;2023-01-16T13:30:32;19.50;;;10.02;;
59424;SDS011;45231;44.826;20.312;2023-01-16T13:32:59;16.27;;;10.13;;
59424;SDS011;45231;44.826;20.312;2023-01-16T13:42:56;18.70;;;11.00;;
59424;SDS011;45231;44.826;20.312;2023-01-16T13:45:43;16.88;;;9.48;;
59424;SDS011;45231;44.826;20.312;2023-01-16T13:48:13;17.02;;;9.02;;
59424;SDS011;45231;44.826;20.312;2023-01-16T13:50:42;16.13;;;10.13;;
59424;SDS011;45231;44.826;20.312;2023-01-16T13:53:11;13.68;;;8.00;;
59424;SDS011;45231;44.826;20.312;2023-01-16T13:55:39;17.45;;;9.75;;
59424;SDS011;45231;44.826;20.312;2023-01-16T13:58:18;19.17;;;10.18;;
59424;SDS011;45231;44.826;20.312;2023-01-16T14:00:45;19.42;;;10.27;;
59424;SDS011;45231;44.826;20.312;2023-01-16T14:03:22;19.13;;;9.95;;
59424;SDS011;45231;44.826;20.312;2023-01-16T14:05:53;17.52;;;8.82;;
59424;SDS011;45231;44.826;20.312;2023-01-16T14:08:25;16.10;;;10.63;;
59424;SDS011;45231;44.826;20.312;2023-01-16T14:13:39;18.25;;;9.57;;
59424;SDS011;45231;44.826;20.312;2023-01-16T14:24:04;18.80;;;10.60;;
59424;SDS011;45231;44.826;20.312;2023-01-16T14:28:58;23.48;;;12.13;;
59424;SDS011;45231;44.826;20.312;2023-01-16T14:34:16;17.67;;;10.38;;
59424;SDS011;45231;44.826;20.312;2023-01-16T14:36:42;18.00;;;10.57;;
59424;SDS011;45231;44.826;20.312;2023-01-16T14:39:25;15.00;;;9.15;;
59424;SDS011;45231;44.826;20.312;2023-01-16T14:41:52;15.68;;;9.52;;
59424;SDS011;45231;44.826;20.312;2023-01-16T14:48:09;15.98;;;9.45;;
59424;SDS011;45231;44.826;20.312;2023-01-16T14:50:55;18.73;;;10.32;;
59424;SDS011;45231;44.826;20.312;2023-01-16T14:53:40;15.55;;;9.55;;
59424;SDS011;45231;44.826;20.312;2023-01-16T14:56:26;15.40;;;9.68;;
59424;SDS011;45231;44.826;20.312;2023-01-16T14:59:07;17.20;;;10.55;;
59424;SDS011;45231;44.826;20.312;2023-01-16T15:01:42;16.05;;;9.85;;
59424;SDS011;45231;44.826;20.312;2023-01-16T15:04:40;15.43;;;8.20;;
59424;SDS011;45231;44.826;20.312;2023-01-16T15:07:11;19.10;;;10.82;;
59424;SDS011;45231;44.826;20.312;2023-01-16T15:09:40;17.52;;;10.43;;
59424;SDS011;45231;44.826;20.312;2023-01-16T15:12:15;18.05;;;10.65;;
59424;SDS011;45231;44.826;20.312;2023-01-16T15:14:54;14.98;;;9.38;;
59424;SDS011;45231;44.826;20.312;2023-01-16T15:17:23;16.40;;;9.82;;
59424;SDS011;45231;44.826;20.312;2023-01-16T15:23:00;16.50;;;9.70;;
59424;SDS011;45231;44.826;20.312;2023-01-16T15:30:29;17.92;;;11.43;;
59424;SDS011;45231;44.826;20.312;2023-01-16T15:32:58;17.63;;;9.73;;
59424;SDS011;45231;44.826;20.312;2023-01-16T15:35:54;15.20;;;9.50;;
59424;SDS011;45231;44.826;20.312;2023-01-16T15:38:20;21.45;;;11.75;;
59424;SDS011;45231;44.826;20.312;2023-01-16T15:40:48;20.83;;;11.55;;
59424;SDS011;45231;44.826;20.312;2023-01-16T15:43:15;17.58;;;12.13;;
59424;SDS011;45231;44.826;20.312;2023-01-16T15:46:06;20.98;;;14.23;;
59424;SDS011;45231;44.826;20.312;2023-01-16T15:49:11;19.30;;;13.25;;
59424;SDS011;45231;44.826;20.312;2023-01-16T15:51:40;17.55;;;12.18;;
59424;SDS011;45231;44.826;20.312;2023-01-16T15:54:10;18.67;;;13.07;;
59424;SDS011;45231;44.826;20.312;2023-01-16T15:56:41;20.63;;;13.93;;
59424;SDS011;45231;44.826;20.312;2023-01-16T16:01:47;23.27;;;14.85;;
59424;SDS011;45231;44.826;20.312;2023-01-16T16:04:13;22.03;;;14.37;;
59424;SDS011;45231;44.826;20.312;2023-01-16T16:06:40;25.45;;;15.32;;
59424;SDS011;45231;44.826;20.312;2023-01-16T16:11:33;22.02;;;13.05;;
59424;SDS011;45231;44.826;20.312;2023-01-16T16:17:17;18.35;;;11.85;;
59424;SDS011;45231;44.826;20.312;2023-01-16T16:22:46;18.38;;;11.65;;
59424;SDS011;45231;44.826;20.312;2023-01-16T16:25:23;15.95;;;10.43;;
59424;SDS011;45231;44.826;20.312;2023-01-16T16:27:50;17.50;;;10.90;;
59424;SDS011;45231;44.826;20.312;2023-01-16T16:30:23;18.80;;;11.93;;
59424;SDS011;45231;44.826;20.312;2023-01-16T16:32:50;16.42;;;9.88;;
59424;SDS011;45231;44.826;20.312;2023-01-16T16:37:42;20.58;;;12.50;;
59424;SDS011;45231;44.826;20.312;2023-01-16T16:40:12;16.80;;;10.10;;
59424;SDS011;45231;44.826;20.312;2023-01-16T16:45:10;18.90;;;11.35;;
59424;SDS011;45231;44.826;20.312;2023-01-16T16:47:41;21.30;;;14.68;;
59424;SDS011;45231;44.826;20.312;2023-01-16T16:52:50;17.55;;;10.77;;
59424;SDS011;45231;44.826;20.312;2023-01-16T16:57:58;19.75;;;11.52;;
59424;SDS011;45231;44.826;20.312;2023-01-16T17:03:01;18.20;;;11.18;;
59424;SDS011;45231;44.826;20.312;2023-01-16T17:07:55;21.33;;;11.05;;
59424;SDS011;45231;44.826;20.312;2023-01-16T17:10:22;15.45;;;10.30;;
59424;SDS011;45231;44.826;20.312;2023-01-16T17:12:48;18.63;;;11.73;;